createdAt,value
2022-09-11T00:01:40.558Z,96951.00
2022-09-11T00:04:07.871Z,96958.00
2022-09-11T00:06:34.718Z,96954.00
2022-09-11T00:09:04.846Z,96956.00
2022-09-11T00:11:41.081Z,96959.00
2022-09-11T00:14:10.548Z,96956.00
2022-09-11T00:16:41.731Z,96953.00
2022-09-11T00:19:13.190Z,96950.00
2022-09-11T00:21:40.232Z,96954.00
2022-09-11T00:24:09.829Z,96956.00
2022-09-11T00:26:37.988Z,96960.00
2022-09-11T00:29:05.070Z,96960.00
2022-09-11T00:31:32.678Z,96951.00
2022-09-11T00:33:59.732Z,96950.00
2022-09-11T00:36:35.827Z,96948.00
2022-09-11T00:39:03.212Z,96957.00
2022-09-11T00:41:36.014Z,96953.00
2022-09-11T00:44:02.930Z,96943.00
2022-09-11T00:46:56.300Z,96937.00
2022-09-11T00:49:47.801Z,96932.00
2022-09-11T00:52:22.461Z,96931.00
2022-09-11T00:54:56.499Z,96927.00
2022-09-11T00:57:28.506Z,96930.00
2022-09-11T00:59:58.662Z,96929.00
2022-09-11T01:02:28.833Z,96930.00
2022-09-11T01:04:57.425Z,96938.00
2022-09-11T01:07:26.928Z,96942.00
2022-09-11T01:09:55.019Z,96928.00
2022-09-11T01:12:39.962Z,96937.00
2022-09-11T01:15:25.341Z,96934.00
2022-09-11T01:18:19.991Z,96932.00
2022-09-11T01:21:08.931Z,96944.00
2022-09-11T01:23:54.892Z,96937.00
2022-09-11T01:27:10.510Z,96933.00
2022-09-11T01:29:51.040Z,96928.00
2022-09-11T01:32:39.913Z,96910.00
2022-09-11T01:36:03.284Z,96909.00
2022-09-11T01:38:35.406Z,96910.00
2022-09-11T01:41:29.044Z,96921.00
2022-09-11T01:44:23.222Z,96906.00
2022-09-11T01:46:53.780Z,96913.00
2022-09-11T01:49:48.089Z,96920.00
2022-09-11T01:52:29.968Z,96914.00
2022-09-11T01:55:29.517Z,96920.00
2022-09-11T01:58:03.648Z,96921.00
2022-09-11T02:00:32.275Z,96918.00
2022-09-11T02:03:11.871Z,96925.00
2022-09-11T02:05:55.575Z,96928.00
2022-09-11T02:08:49.278Z,96921.00
2022-09-11T02:11:17.953Z,96921.00
2022-09-11T02:14:18.062Z,96922.00
2022-09-11T02:16:56.983Z,96920.00
2022-09-11T02:19:29.831Z,96914.00
2022-09-11T02:21:58.545Z,96924.00
2022-09-11T02:24:27.649Z,96907.00
2022-09-11T02:27:13.660Z,96916.00
2022-09-11T02:29:40.631Z,96911.00
2022-09-11T02:32:07.519Z,96901.00
2022-09-11T02:34:36.828Z,96913.00
2022-09-11T02:37:49.263Z,96908.00
2022-09-11T02:40:44.051Z,96910.00
2022-09-11T02:43:34.807Z,96914.00
2022-09-11T02:46:34.546Z,96911.00
2022-09-11T02:50:02.296Z,96905.00
2022-09-11T02:52:41.433Z,96906.00
2022-09-11T02:55:18.806Z,96903.00
2022-09-11T02:58:15.640Z,96907.00
2022-09-11T03:00:42.889Z,96918.00
2022-09-11T03:03:09.766Z,96911.00
2022-09-11T03:05:37.109Z,96907.00
2022-09-11T03:08:04.307Z,96910.00
2022-09-11T03:10:31.143Z,96911.00
2022-09-11T03:12:59.632Z,96915.00
2022-09-11T03:15:27.379Z,96911.00
2022-09-11T03:17:54.213Z,96912.00
2022-09-11T03:20:21.987Z,96895.00
2022-09-11T03:22:48.821Z,96907.00
2022-09-11T03:25:15.675Z,96908.00
2022-09-11T03:27:43.430Z,96911.00
2022-09-11T03:30:10.742Z,96904.00
2022-09-11T03:32:37.625Z,96903.00
2022-09-11T03:35:04.773Z,96903.00
2022-09-11T03:37:31.744Z,96915.00
2022-09-11T03:39:58.873Z,96898.00
2022-09-11T03:42:25.800Z,96902.00
2022-09-11T03:44:52.669Z,96902.00
2022-09-11T03:47:22.075Z,96904.00
2022-09-11T03:49:49.229Z,96906.00
2022-09-11T03:52:16.044Z,96900.00
2022-09-11T03:54:42.820Z,96900.00
2022-09-11T03:57:09.997Z,96906.00
2022-09-11T03:59:36.884Z,96900.00
2022-09-11T04:02:03.916Z,96901.00
2022-09-11T04:04:30.969Z,96905.00
2022-09-11T04:06:58.379Z,96915.00
2022-09-11T04:09:25.536Z,96901.00
2022-09-11T04:11:52.283Z,96905.00
2022-09-11T04:14:19.322Z,96902.00
2022-09-11T04:16:46.367Z,96905.00
2022-09-11T04:19:13.548Z,96909.00
2022-09-11T04:21:40.827Z,96917.00
2022-09-11T04:24:07.588Z,96906.00
2022-09-11T04:26:34.445Z,96904.00
2022-09-11T04:29:01.293Z,96900.00
2022-09-11T04:31:28.436Z,96904.00
2022-09-11T04:33:57.943Z,96909.00
2022-09-11T04:36:26.937Z,96909.00
2022-09-11T04:38:58.696Z,96907.00
2022-09-11T04:41:26.749Z,96902.00
2022-09-11T04:44:03.823Z,96900.00
2022-09-11T04:46:31.901Z,96902.00
2022-09-11T04:49:02.308Z,96903.00
2022-09-11T04:51:32.703Z,96906.00
2022-09-11T04:54:00.963Z,96905.00
2022-09-11T04:56:31.312Z,96909.00
2022-09-11T04:59:03.409Z,96917.00
2022-09-11T05:01:32.136Z,96914.00
2022-09-11T05:04:01.600Z,96908.00
2022-09-11T05:06:30.373Z,96906.00
2022-09-11T05:09:03.198Z,96915.00
2022-09-11T05:11:30.358Z,96905.00
2022-09-11T05:13:59.465Z,96914.00
2022-09-11T05:16:29.149Z,96910.00
2022-09-11T05:18:57.320Z,96919.00
2022-09-11T05:21:26.048Z,96905.00
2022-09-11T05:23:55.807Z,96919.00
2022-09-11T05:26:36.399Z,96916.00
2022-09-11T05:29:11.747Z,96923.00
2022-09-11T05:31:39.422Z,96920.00
2022-09-11T05:34:06.836Z,96927.00
2022-09-11T05:36:35.356Z,96929.00
2022-09-11T05:39:03.740Z,96927.00
2022-09-11T05:41:31.624Z,96931.00
2022-09-11T05:43:59.210Z,96929.00
2022-09-11T05:46:26.466Z,96933.00
2022-09-11T05:48:53.571Z,96945.00
2022-09-11T05:51:21.905Z,96939.00
2022-09-11T05:53:53.543Z,96945.00
2022-09-11T05:56:23.807Z,96947.00
2022-09-11T05:58:54.786Z,96956.00
2022-09-11T06:01:25.771Z,96949.00
2022-09-11T06:03:53.661Z,96951.00
2022-09-11T06:06:22.782Z,96948.00
2022-09-11T06:08:51.774Z,96959.00
2022-09-11T06:11:21.124Z,96953.00
2022-09-11T06:13:49.442Z,96959.00
2022-09-11T06:16:23.941Z,96954.00
2022-09-11T06:18:52.597Z,96962.00
2022-09-11T06:21:23.113Z,96967.00
2022-09-11T06:23:52.007Z,96963.00
2022-09-11T06:26:22.672Z,96966.00
2022-09-11T06:28:50.928Z,96967.00
2022-09-11T06:31:26.671Z,96967.00
2022-09-11T06:33:54.109Z,96964.00
2022-09-11T06:36:23.912Z,96973.00
2022-09-11T06:38:55.407Z,96977.00
2022-09-11T06:41:22.969Z,96978.00
2022-09-11T06:43:50.226Z,96978.00
2022-09-11T06:46:20.126Z,96974.00
2022-09-11T06:48:49.579Z,96982.00
2022-09-11T06:51:20.156Z,96978.00
2022-09-11T06:53:47.494Z,96971.00
2022-09-11T06:56:18.130Z,96982.00
2022-09-11T06:58:45.952Z,96973.00
2022-09-11T07:01:15.977Z,96977.00
2022-09-11T07:03:48.479Z,96967.00
2022-09-11T07:06:18.904Z,96976.00
2022-09-11T07:08:52.424Z,96990.00
2022-09-11T07:11:20.267Z,96993.00
2022-09-11T07:13:47.387Z,96983.00
2022-09-11T07:16:16.490Z,96982.00
2022-09-11T07:18:46.291Z,96990.00
2022-09-11T07:21:21.296Z,96987.00
2022-09-11T07:23:54.364Z,96993.00
2022-09-11T07:26:22.481Z,96993.00
2022-09-11T07:28:51.421Z,96997.00
2022-09-11T07:31:21.862Z,97000.00
2022-09-11T07:33:50.898Z,97004.00
2022-09-11T07:36:25.077Z,96993.00
2022-09-11T07:38:52.504Z,97001.00
2022-09-11T07:41:22.384Z,97000.00
2022-09-11T07:43:57.537Z,97014.00
2022-09-11T07:46:25.195Z,97011.00
2022-09-11T07:48:51.963Z,97012.00
2022-09-11T07:53:59.440Z,97014.00
2022-09-11T07:56:27.668Z,97019.00
2022-09-11T07:58:55.676Z,97017.00
2022-09-11T08:01:29.733Z,97029.00
2022-09-11T08:04:02.120Z,97023.00
2022-09-11T08:06:32.994Z,97030.00
2022-09-11T08:09:06.739Z,97030.00
2022-09-11T08:11:38.848Z,97036.00
2022-09-11T08:14:07.304Z,97040.00
2022-09-11T08:16:36.189Z,97042.00
2022-09-11T08:19:04.016Z,97054.00
2022-09-11T08:21:31.038Z,97055.00
2022-09-11T08:23:58.263Z,97052.00
2022-09-11T08:26:28.882Z,97055.00
2022-09-11T08:28:57.882Z,97056.00
2022-09-11T08:31:27.627Z,97060.00
2022-09-11T08:33:55.967Z,97060.00
2022-09-11T08:36:24.270Z,97066.00
2022-09-11T08:38:52.451Z,97068.00
2022-09-11T08:41:28.196Z,97070.00
2022-09-11T08:44:03.263Z,97070.00
2022-09-11T08:46:40.761Z,97074.00
2022-09-11T08:49:32.518Z,97080.00
2022-09-11T08:52:03.025Z,97075.00
2022-09-11T08:54:33.389Z,97074.00
2022-09-11T08:57:35.107Z,97074.00
2022-09-11T09:00:20.875Z,97081.00
2022-09-11T09:03:10.991Z,97079.00
2022-09-11T09:06:24.647Z,97076.00
2022-09-11T09:09:13.633Z,97076.00
2022-09-11T09:11:56.753Z,97077.00
2022-09-11T09:15:17.053Z,97075.00
2022-09-11T09:17:50.194Z,97083.00
2022-09-11T09:20:21.545Z,97085.00
2022-09-11T09:23:05.610Z,97092.00
2022-09-11T09:25:38.645Z,97088.00
2022-09-11T09:28:21.876Z,97086.00
2022-09-11T09:31:01.463Z,97083.00
2022-09-11T09:33:38.087Z,97084.00
2022-09-11T09:36:31.328Z,97088.00
2022-09-11T09:38:58.752Z,97090.00
2022-09-11T09:41:56.840Z,97107.00
2022-09-11T09:44:50.928Z,97107.00
2022-09-11T09:47:18.563Z,97102.00
2022-09-11T09:49:47.216Z,97095.00
2022-09-11T09:52:24.304Z,97098.00
2022-09-11T09:55:06.833Z,97095.00
2022-09-11T09:57:39.898Z,97093.00
2022-09-11T10:00:17.758Z,97095.00
2022-09-11T10:02:53.903Z,97087.00
2022-09-11T10:05:29.370Z,97087.00
2022-09-11T10:07:59.710Z,97087.00
2022-09-11T10:10:34.822Z,97092.00
2022-09-11T10:13:18.897Z,97093.00
2022-09-11T10:15:49.386Z,97092.00
2022-09-11T10:18:42.981Z,97097.00
2022-09-11T10:21:12.898Z,97103.00
2022-09-11T10:24:03.824Z,97103.00
2022-09-11T10:26:40.856Z,97105.00
2022-09-11T10:29:15.998Z,97103.00
2022-09-11T10:31:55.070Z,97106.00
2022-09-11T10:34:25.923Z,97114.00
2022-09-11T10:37:03.468Z,97116.00
2022-09-11T10:39:35.270Z,97131.00
2022-09-11T10:42:16.568Z,97133.00
2022-09-11T10:44:45.725Z,97142.00
2022-09-11T10:47:28.283Z,97141.00
2022-09-11T10:50:30.994Z,97134.00
2022-09-11T10:53:18.090Z,97124.00
2022-09-11T10:56:00.639Z,97132.00
2022-09-11T10:58:34.349Z,97127.00
2022-09-11T11:01:01.484Z,97135.00
2022-09-11T11:03:29.524Z,97142.00
2022-09-11T11:06:15.618Z,97145.00
2022-09-11T11:08:58.700Z,97150.00
2022-09-11T11:11:56.081Z,97145.00
2022-09-11T11:14:32.445Z,97143.00
2022-09-11T11:17:45.697Z,97151.00
2022-09-11T11:20:46.280Z,97137.00
2022-09-11T11:23:26.466Z,97139.00
2022-09-11T11:26:21.019Z,97145.00
2022-09-11T11:29:19.687Z,97135.00
2022-09-11T11:31:55.637Z,97149.00
2022-09-11T11:34:37.202Z,97146.00
2022-09-11T11:37:19.269Z,97146.00
2022-09-11T11:40:03.591Z,97146.00
2022-09-11T11:42:38.571Z,97149.00
2022-09-11T11:45:41.012Z,97153.00
2022-09-11T11:48:38.022Z,97156.00
2022-09-11T11:51:15.505Z,97159.00
2022-09-11T11:54:17.531Z,97149.00
2022-09-11T11:57:02.726Z,97156.00
2022-09-11T11:59:44.609Z,97157.00
2022-09-11T12:02:34.974Z,97167.00
2022-09-11T12:05:24.183Z,97170.00
2022-09-11T12:07:51.899Z,97167.00
2022-09-11T12:10:33.599Z,97170.00
2022-09-11T12:13:05.649Z,97171.00
2022-09-11T12:15:34.607Z,97169.00
2022-09-11T12:18:12.271Z,97172.00
2022-09-11T12:20:45.215Z,97174.00
2022-09-11T12:23:29.963Z,97171.00
2022-09-11T12:26:09.003Z,97176.00
2022-09-11T12:28:37.833Z,97176.00
2022-09-11T12:31:13.974Z,97176.00
2022-09-11T12:33:44.277Z,97180.00
2022-09-11T12:36:17.044Z,97170.00
2022-09-11T12:38:49.191Z,97173.00
2022-09-11T12:41:27.417Z,97183.00
2022-09-11T12:43:54.981Z,97190.00
2022-09-11T12:46:21.670Z,97188.00
2022-09-11T12:49:18.061Z,97188.00
2022-09-11T12:51:54.098Z,97190.00
2022-09-11T12:54:29.695Z,97191.00
2022-09-11T12:57:12.915Z,97188.00
2022-09-11T12:59:42.452Z,97183.00
2022-09-11T13:02:36.516Z,97188.00
2022-09-11T13:05:17.153Z,97186.00
2022-09-11T13:07:47.699Z,97191.00
2022-09-11T13:10:35.158Z,97194.00
2022-09-11T13:13:04.969Z,97192.00
2022-09-11T13:15:36.719Z,97196.00
2022-09-11T13:18:25.551Z,97200.00
2022-09-11T13:21:00.645Z,97198.00
2022-09-11T13:23:28.555Z,97193.00
2022-09-11T13:25:58.525Z,97192.00
2022-09-11T13:28:28.165Z,97192.00
2022-09-11T13:31:02.213Z,97194.00
2022-09-11T13:33:31.294Z,97203.00
2022-09-11T13:36:02.698Z,97200.00
2022-09-11T13:38:37.409Z,97189.00
2022-09-11T13:41:19.994Z,97189.00
2022-09-11T13:43:58.309Z,97186.00
2022-09-11T13:46:32.534Z,97183.00
2022-09-11T13:49:06.469Z,97188.00
2022-09-11T13:51:33.987Z,97181.00
2022-09-11T13:54:07.502Z,97182.00
2022-09-11T13:56:48.609Z,97183.00
2022-09-11T13:59:50.347Z,97184.00
2022-09-11T14:02:44.410Z,97178.00
2022-09-11T14:05:16.021Z,97183.00
2022-09-11T14:07:56.723Z,97189.00
2022-09-11T14:10:42.799Z,97184.00
2022-09-11T14:13:33.272Z,97182.00
2022-09-11T14:16:08.926Z,97194.00
2022-09-11T14:18:59.740Z,97187.00
2022-09-11T14:21:36.485Z,97199.00
2022-09-11T14:24:07.298Z,97196.00
2022-09-11T14:26:35.034Z,97200.00
2022-09-11T14:29:31.371Z,97198.00
2022-09-11T14:32:38.976Z,97202.00
2022-09-11T14:35:09.510Z,97215.00
2022-09-11T14:37:45.560Z,97206.00
2022-09-11T14:40:18.733Z,97209.00
2022-09-11T14:42:46.258Z,97203.00
2022-09-11T14:45:23.928Z,97202.00
2022-09-11T14:47:51.169Z,97203.00
2022-09-11T14:50:18.538Z,97199.00
2022-09-11T14:52:46.376Z,97199.00
2022-09-11T14:55:19.353Z,97193.00
2022-09-11T14:57:46.751Z,97192.00
2022-09-11T15:00:16.483Z,97193.00
2022-09-11T15:02:43.267Z,97196.00
2022-09-11T15:05:16.864Z,97190.00
2022-09-11T15:07:46.927Z,97184.00
2022-09-11T15:10:15.118Z,97191.00
2022-09-11T15:12:42.683Z,97194.00
2022-09-11T15:15:10.553Z,97184.00
2022-09-11T15:17:37.502Z,97196.00
2022-09-11T15:20:07.158Z,97206.00
2022-09-11T15:22:34.809Z,97204.00
2022-09-11T15:25:01.898Z,97201.00
2022-09-11T15:27:28.769Z,97202.00
2022-09-11T15:29:55.607Z,97209.00
2022-09-11T15:32:22.487Z,97205.00
2022-09-11T15:34:49.500Z,97205.00
2022-09-11T15:37:16.942Z,97215.00
2022-09-11T15:39:44.241Z,97205.00
2022-09-11T15:42:11.894Z,97205.00
2022-09-11T15:44:39.107Z,97212.00
2022-09-11T15:47:06.180Z,97211.00
2022-09-11T15:49:33.261Z,97211.00
2022-09-11T15:52:00.346Z,97205.00
2022-09-11T15:54:27.552Z,97214.00
2022-09-11T15:56:54.867Z,97203.00
2022-09-11T15:59:21.770Z,97211.00
2022-09-11T16:01:48.914Z,97209.00
2022-09-11T16:04:20.174Z,97207.00
2022-09-11T16:06:48.897Z,97204.00
2022-09-11T16:09:18.201Z,97204.00
2022-09-11T16:11:47.758Z,97202.00
2022-09-11T16:14:27.529Z,97210.00
2022-09-11T16:16:57.106Z,97203.00
2022-09-11T16:19:27.814Z,97211.00
2022-09-11T16:21:57.176Z,97217.00
2022-09-11T16:24:26.554Z,97208.00
2022-09-11T16:26:55.913Z,97208.00
2022-09-11T16:29:25.819Z,97202.00
2022-09-11T16:31:52.776Z,97198.00
2022-09-11T16:34:19.661Z,97206.00
2022-09-11T16:36:46.930Z,97205.00
2022-09-11T16:39:22.133Z,97206.00
2022-09-11T16:41:49.296Z,97207.00
2022-09-11T16:44:17.179Z,97208.00
2022-09-11T16:46:45.372Z,97216.00
2022-09-11T16:49:18.361Z,97209.00
2022-09-11T16:51:47.247Z,97217.00
2022-09-11T16:54:15.105Z,97218.00
2022-09-11T16:56:45.921Z,97216.00
2022-09-11T16:59:13.145Z,97218.00
2022-09-11T17:01:40.003Z,97208.00
2022-09-11T17:04:06.989Z,97224.00
2022-09-11T17:06:33.829Z,97212.00
2022-09-11T17:09:04.102Z,97214.00
2022-09-11T17:11:33.269Z,97217.00
2022-09-11T17:14:02.267Z,97207.00
2022-09-11T17:16:31.999Z,97215.00
2022-09-11T17:19:01.501Z,97215.00
2022-09-11T17:21:35.571Z,97213.00
2022-09-11T17:24:04.638Z,97216.00
2022-09-11T17:26:31.942Z,97217.00
2022-09-11T17:29:05.040Z,97215.00
2022-09-11T17:31:32.085Z,97220.00
2022-09-11T17:33:59.182Z,97219.00
2022-09-11T17:36:26.080Z,97215.00
2022-09-11T17:38:52.927Z,97222.00
2022-09-11T17:41:21.019Z,97222.00
2022-09-11T17:43:48.374Z,97228.00
2022-09-11T17:46:19.872Z,97223.00
2022-09-11T17:48:47.860Z,97235.00
2022-09-11T17:51:20.120Z,97230.00
2022-09-11T17:53:55.516Z,97236.00
2022-09-11T17:56:32.546Z,97244.00
2022-09-11T17:59:00.714Z,97248.00
2022-09-11T18:01:30.470Z,97249.00
2022-09-11T18:03:59.195Z,97254.00
2022-09-11T18:06:34.434Z,97256.00
2022-09-11T18:09:19.674Z,97245.00
2022-09-11T18:11:50.333Z,97256.00
2022-09-11T18:14:18.791Z,97248.00
2022-09-11T18:16:47.804Z,97257.00
2022-09-11T18:19:17.870Z,97258.00
2022-09-11T18:21:49.770Z,97257.00
2022-09-11T18:24:21.619Z,97258.00
2022-09-11T18:26:59.970Z,97261.00
2022-09-11T18:29:27.069Z,97261.00
2022-09-11T18:31:54.594Z,97261.00
2022-09-11T18:34:24.577Z,97255.00
2022-09-11T18:36:52.058Z,97257.00
2022-09-11T18:39:21.661Z,97248.00
2022-09-11T18:41:50.491Z,97257.00
2022-09-11T18:44:20.361Z,97258.00
2022-09-11T18:46:47.981Z,97260.00
2022-09-11T18:49:16.124Z,97259.00
2022-09-11T18:51:43.224Z,97267.00
2022-09-11T18:54:20.050Z,97252.00
2022-09-11T18:56:49.119Z,97265.00
2022-09-11T18:59:16.802Z,97263.00
2022-09-11T19:01:43.888Z,97273.00
2022-09-11T19:04:12.341Z,97274.00
2022-09-11T19:06:40.244Z,97279.00
2022-09-11T19:09:10.399Z,97272.00
2022-09-11T19:11:37.668Z,97275.00
2022-09-11T19:14:08.359Z,97272.00
2022-09-11T19:16:36.162Z,97276.00
2022-09-11T19:19:04.026Z,97273.00
2022-09-11T19:21:30.907Z,97279.00
2022-09-11T19:24:00.595Z,97277.00
2022-09-11T19:26:33.431Z,97280.00
2022-09-11T19:29:00.955Z,97286.00
2022-09-11T19:31:29.642Z,97296.00
2022-09-11T19:34:00.730Z,97286.00
2022-09-11T19:36:31.419Z,97292.00
2022-09-11T19:39:01.704Z,97296.00
2022-09-11T19:41:35.311Z,97291.00
2022-09-11T19:44:04.939Z,97292.00
2022-09-11T19:46:34.858Z,97292.00
2022-09-11T19:49:05.531Z,97292.00
2022-09-11T19:51:41.453Z,97289.00
2022-09-11T19:54:11.015Z,97302.00
2022-09-11T19:56:38.856Z,97297.00
2022-09-11T19:59:08.055Z,97287.00
2022-09-11T20:01:35.175Z,97300.00
2022-09-11T20:04:02.377Z,97299.00
2022-09-11T20:06:32.118Z,97299.00
2022-09-11T20:09:27.353Z,97298.00
2022-09-11T20:11:47.303Z,97302.00
2022-09-11T20:14:14.122Z,97295.00
2022-09-11T20:16:41.524Z,97288.00
2022-09-11T20:19:10.050Z,97298.00
2022-09-11T20:21:36.932Z,97291.00
2022-09-11T20:24:07.205Z,97297.00
2022-09-11T20:26:34.045Z,97300.00
2022-09-11T20:29:12.794Z,97304.00
2022-09-11T20:31:47.655Z,97293.00
2022-09-11T20:34:17.416Z,97291.00
2022-09-11T20:36:44.311Z,97288.00
2022-09-11T20:39:13.549Z,97291.00
2022-09-11T20:41:41.139Z,97295.00
2022-09-11T20:44:08.245Z,97288.00
2022-09-11T20:46:35.161Z,97292.00
2022-09-11T20:49:03.035Z,97286.00
2022-09-11T20:51:30.254Z,97290.00
2022-09-11T20:53:57.097Z,97283.00
2022-09-11T20:56:24.210Z,97295.00
2022-09-11T20:58:51.914Z,97290.00
2022-09-11T21:01:24.072Z,97296.00
2022-09-11T21:03:56.968Z,97289.00
2022-09-11T21:06:27.031Z,97289.00
2022-09-11T21:08:57.090Z,97297.00
2022-09-11T21:11:29.638Z,97286.00
2022-09-11T21:13:56.436Z,97290.00
2022-09-11T21:16:23.325Z,97280.00
2022-09-11T21:18:56.815Z,97288.00
2022-09-11T21:21:25.833Z,97285.00
2022-09-11T21:23:58.706Z,97284.00
2022-09-11T21:26:27.429Z,97277.00
2022-09-11T21:28:56.217Z,97285.00
2022-09-11T21:31:23.600Z,97278.00
2022-09-11T21:33:50.662Z,97279.00
2022-09-11T21:36:17.537Z,97283.00
2022-09-11T21:38:44.557Z,97281.00
2022-09-11T21:41:13.494Z,97278.00
2022-09-11T21:43:40.399Z,97280.00
2022-09-11T21:46:08.874Z,97271.00
2022-09-11T21:48:38.734Z,97272.00
2022-09-11T21:51:18.662Z,97279.00
2022-09-11T21:53:47.142Z,97281.00
2022-09-11T21:56:29.056Z,97277.00
2022-09-11T21:58:56.415Z,97273.00
2022-09-11T22:01:25.151Z,97270.00
2022-09-11T22:03:52.890Z,97279.00
2022-09-11T22:06:21.385Z,97279.00
2022-09-11T22:08:48.163Z,97284.00
2022-09-11T22:11:16.135Z,97281.00
2022-09-11T22:13:43.770Z,97284.00
2022-09-11T22:16:14.265Z,97288.00
2022-09-11T22:18:42.170Z,97287.00
2022-09-11T22:21:10.302Z,97288.00
2022-09-11T22:23:37.229Z,97286.00
2022-09-11T22:26:19.128Z,97279.00
2022-09-11T22:28:45.937Z,97278.00
2022-09-11T22:31:19.898Z,97282.00
2022-09-11T22:33:46.998Z,97289.00
2022-09-11T22:36:24.658Z,97283.00
2022-09-11T22:38:51.853Z,97276.00
2022-09-11T22:41:19.712Z,97288.00
2022-09-11T22:43:48.742Z,97282.00
2022-09-11T22:46:16.775Z,97292.00
2022-09-11T22:48:43.919Z,97290.00
2022-09-11T22:51:10.834Z,97287.00
2022-09-11T22:53:39.576Z,97281.00
2022-09-11T22:56:07.601Z,97284.00
2022-09-11T22:58:34.401Z,97290.00
2022-09-11T23:01:03.567Z,97295.00
2022-09-11T23:03:30.754Z,97288.00
2022-09-11T23:06:18.399Z,97288.00
2022-09-11T23:08:46.812Z,97291.00
2022-09-11T23:11:17.105Z,97286.00
2022-09-11T23:13:44.300Z,97287.00
2022-09-11T23:16:20.878Z,97281.00
2022-09-11T23:18:48.747Z,97279.00
2022-09-11T23:21:15.674Z,97276.00
2022-09-11T23:23:43.348Z,97284.00
2022-09-11T23:26:14.070Z,97283.00
2022-09-11T23:28:41.464Z,97267.00
2022-09-11T23:31:20.779Z,97268.00
2022-09-11T23:33:48.539Z,97273.00
2022-09-11T23:36:17.400Z,97274.00
2022-09-11T23:38:46.204Z,97270.00
2022-09-11T23:41:13.788Z,97272.00
2022-09-11T23:43:41.389Z,97275.00
2022-09-11T23:46:08.618Z,97272.00
2022-09-11T23:48:35.531Z,97272.00
2022-09-11T23:51:02.694Z,97262.00
2022-09-11T23:53:30.324Z,97263.00
2022-09-11T23:55:58.094Z,97257.00
2022-09-11T23:58:24.960Z,97253.00
